Time;durP1;ratioP1;P1;durP2;ratioP2;P2;SDS_P1;SDS_P2;PMS_P1;PMS_P2;Temp;Humidity;BMP_temperature;BMP_pressure;BME280_temperature;BME280_humidity;BME280_pressure;Samples;Min_cycle;Max_cycle;Signal;HPM_P1;HPM_P2
2022/03/02 00:00:54;;;;;;;23.85;18.27;;;0.30;1.00;;;;;;6110874;23;20193;-83
2022/03/02 00:03:21;;;;;;;20.55;16.58;;;0.30;1.00;;;;;;6099477;23;20192;-84
2022/03/02 00:05:48;;;;;;;22.27;18.48;;;0.30;1.00;;;;;;6094599;23;20200;-84
2022/03/02 00:08:15;;;;;;;22.40;18.25;;;0.30;1.00;;;;;;6093578;23;20283;-84
2022/03/02 00:10:43;;;;;;;21.63;16.80;;;0.30;1.00;;;;;;6092100;23;20204;-84
2022/03/02 00:13:09;;;;;;;21.67;17.13;;;0.30;1.00;;;;;;6091860;23;20208;-85
2022/03/02 00:15:36;;;;;;;22.13;19.67;;;0.20;1.00;;;;;;6096535;23;20225;-82
2022/03/02 00:18:03;;;;;;;20.52;18.33;;;0.10;1.00;;;;;;6094763;23;20292;-82
2022/03/02 00:20:30;;;;;;;23.92;16.90;;;0.00;1.00;;;;;;6093650;23;20542;-82
2022/03/02 00:22:56;;;;;;;20.67;16.23;;;0.00;1.00;;;;;;6109754;23;20921;-82
2022/03/02 00:25:23;;;;;;;21.50;16.85;;;-0.10;1.00;;;;;;6089365;23;21054;-82
2022/03/02 00:27:52;;;;;;;22.88;18.13;;;0.00;1.00;;;;;;6088982;23;20232;-82
2022/03/02 00:30:18;;;;;;;24.90;17.38;;;0.00;1.00;;;;;;6085929;23;20247;-81
2022/03/02 00:32:45;;;;;;;19.45;15.02;;;0.00;1.00;;;;;;6087560;23;20196;-82
2022/03/02 00:35:12;;;;;;;20.17;17.13;;;0.10;1.00;;;;;;6091159;23;20209;-82
2022/03/02 00:37:39;;;;;;;23.60;15.50;;;0.10;1.00;;;;;;6093219;23;20273;-82
2022/03/02 00:40:06;;;;;;;22.88;17.45;;;0.20;1.00;;;;;;6093872;23;20195;-82
2022/03/02 00:42:33;;;;;;;25.75;18.33;;;0.20;1.00;;;;;;6096119;23;20224;-82
2022/03/02 00:45:01;;;;;;;21.42;15.48;;;0.20;1.00;;;;;;6094131;23;20276;-82
2022/03/02 00:47:29;;;;;;;19.33;16.33;;;0.20;1.00;;;;;;6093889;23;20224;-82
2022/03/02 00:49:56;;;;;;;18.75;15.65;;;0.30;1.00;;;;;;6094208;23;20758;-82
2022/03/02 00:52:23;;;;;;;20.33;17.02;;;0.40;1.00;;;;;;6092290;23;21124;-80
2022/03/02 00:54:50;;;;;;;19.77;15.65;;;0.40;1.00;;;;;;6093179;23;20287;-80
2022/03/02 00:57:17;;;;;;;20.52;15.65;;;0.40;1.00;;;;;;6092146;23;20279;-80
2022/03/02 00:59:44;;;;;;;21.25;15.45;;;0.50;1.00;;;;;;6094560;23;20193;-81
2022/03/02 01:02:12;;;;;;;22.02;16.27;;;0.50;1.00;;;;;;6092222;23;20235;-81
2022/03/02 01:04:38;;;;;;;17.20;14.82;;;0.60;1.00;;;;;;6094856;23;20280;-82
2022/03/02 01:07:05;;;;;;;21.02;16.20;;;0.60;1.00;;;;;;6110040;23;20176;-82
2022/03/02 01:09:32;;;;;;;18.73;16.73;;;0.60;1.00;;;;;;6123564;23;20571;-80
2022/03/02 01:11:59;;;;;;;22.55;17.13;;;0.60;1.00;;;;;;6125171;23;20196;-84
2022/03/02 01:14:51;;;;;;;18.17;15.57;;;0.60;1.00;;;;;;6119451;23;20871;-83
2022/03/02 01:17:21;;;;;;;18.48;16.25;;;0.60;1.00;;;;;;6088859;23;20191;-83
2022/03/02 01:19:48;;;;;;;17.27;14.40;;;0.60;1.00;;;;;;6088315;23;20192;-83
2022/03/02 01:22:16;;;;;;;22.95;15.57;;;0.50;1.00;;;;;;6089324;23;20912;-82
2022/03/02 01:24:43;;;;;;;19.60;15.25;;;0.50;1.00;;;;;;6081886;23;20193;-82
2022/03/02 01:27:10;;;;;;;19.85;16.38;;;0.50;1.00;;;;;;6086684;23;20978;-83
2022/03/02 01:29:37;;;;;;;17.73;15.15;;;0.50;1.00;;;;;;6088651;23;20204;-82
2022/03/02 01:32:05;;;;;;;18.00;15.88;;;0.50;1.00;;;;;;6082789;23;20327;-83
2022/03/02 01:34:34;;;;;;;19.77;15.27;;;0.50;1.00;;;;;;6099821;23;20260;-82
2022/03/02 01:37:01;;;;;;;20.48;14.80;;;0.50;1.00;;;;;;6115490;23;20188;-83
2022/03/02 01:39:27;;;;;;;22.05;16.17;;;0.50;1.00;;;;;;6113951;23;20211;-83
2022/03/02 01:41:54;;;;;;;21.33;16.40;;;0.50;1.00;;;;;;6094635;23;20220;-83
2022/03/02 01:44:21;;;;;;;18.33;14.80;;;0.60;1.00;;;;;;6094057;23;20195;-83
2022/03/02 01:46:49;;;;;;;17.92;15.18;;;0.50;1.00;;;;;;6091300;23;21023;-82
2022/03/02 01:49:15;;;;;;;22.10;15.68;;;0.60;1.00;;;;;;6092861;23;20256;-83
2022/03/02 01:51:43;;;;;;;17.63;15.25;;;0.60;1.00;;;;;;6091185;23;20299;-82
2022/03/02 01:54:10;;;;;;;19.20;15.48;;;0.60;1.00;;;;;;6095591;23;20287;-83
2022/03/02 01:56:37;;;;;;;23.48;16.50;;;0.70;1.00;;;;;;6096060;23;21150;-82
2022/03/02 01:59:05;;;;;;;20.25;15.38;;;0.70;1.00;;;;;;6093561;23;20227;-82
2022/03/02 02:01:33;;;;;;;21.77;16.23;;;0.70;1.00;;;;;;6095812;23;20597;-83
2022/03/02 02:04:01;;;;;;;23.02;15.52;;;0.70;1.00;;;;;;6095108;23;20193;-82
2022/03/02 02:06:28;;;;;;;17.40;14.52;;;0.80;1.00;;;;;;6091960;23;20299;-82
2022/03/02 02:08:57;;;;;;;24.23;17.60;;;0.80;1.00;;;;;;6090737;23;20204;-82
2022/03/02 02:11:24;;;;;;;22.15;16.00;;;0.80;1.00;;;;;;6088842;23;20215;-83
2022/03/02 02:13:51;;;;;;;24.20;15.23;;;0.80;1.00;;;;;;6086881;23;20204;-82
2022/03/02 02:16:21;;;;;;;21.13;16.00;;;0.80;1.00;;;;;;6088421;23;20196;-83
2022/03/02 02:18:50;;;;;;;19.27;15.85;;;0.80;1.00;;;;;;6087941;23;20193;-83
2022/03/02 02:21:19;;;;;;;23.38;15.70;;;0.80;1.00;;;;;;6091521;23;20201;-83
2022/03/02 02:23:46;;;;;;;18.98;15.13;;;0.80;1.00;;;;;;6092934;23;20197;-83
2022/03/02 02:26:13;;;;;;;21.17;15.20;;;0.80;1.00;;;;;;6090684;23;20196;-83
2022/03/02 02:28:40;;;;;;;18.35;14.98;;;0.80;1.00;;;;;;6087684;23;20263;-83
2022/03/02 02:31:07;;;;;;;20.98;16.65;;;0.80;1.00;;;;;;6088380;23;20675;-84
2022/03/02 02:33:34;;;;;;;19.60;15.27;;;0.80;1.00;;;;;;6091998;23;20212;-83
2022/03/02 02:36:01;;;;;;;19.50;15.52;;;0.80;1.00;;;;;;6091163;23;21488;-84
2022/03/02 02:38:29;;;;;;;21.80;16.58;;;0.70;1.00;;;;;;6096661;23;20219;-85
2022/03/02 02:40:56;;;;;;;18.58;15.30;;;0.70;1.00;;;;;;6094015;23;20265;-87
2022/03/02 02:43:25;;;;;;;17.73;14.52;;;0.70;1.00;;;;;;6092776;23;20193;-86
2022/03/02 02:45:52;;;;;;;18.63;15.60;;;0.70;1.00;;;;;;6103218;23;20199;-86
2022/03/02 02:48:18;;;;;;;23.15;17.50;;;0.80;1.00;;;;;;6096205;23;20196;-86
2022/03/02 02:50:45;;;;;;;19.13;16.35;;;0.80;1.00;;;;;;6095835;23;20240;-86
2022/03/02 02:53:13;;;;;;;20.35;16.33;;;0.80;1.00;;;;;;6065598;23;20277;-86
2022/03/02 02:55:44;;;;;;;25.33;16.30;;;0.80;1.00;;;;;;6067789;23;20201;-88
2022/03/02 02:58:11;;;;;;;21.80;15.23;;;0.90;1.00;;;;;;6067821;23;20276;-86
2022/03/02 03:00:41;;;;;;;25.20;16.60;;;0.90;1.00;;;;;;6070014;23;20276;-88
2022/03/02 03:03:08;;;;;;;22.30;16.10;;;0.90;1.00;;;;;;6066133;23;20197;-88
2022/03/02 03:05:35;;;;;;;20.25;16.02;;;0.90;1.00;;;;;;6071634;23;20203;-85
2022/03/02 03:08:09;;;;;;;20.55;15.25;;;0.90;1.00;;;;;;6058690;23;20189;-88
2022/03/02 03:10:36;;;;;;;17.67;14.60;;;0.90;1.00;;;;;;6084929;23;20187;-88
2022/03/02 03:13:05;;;;;;;20.58;16.20;;;1.00;1.00;;;;;;6079435;23;20357;-88
2022/03/02 03:15:36;;;;;;;18.10;15.70;;;0.90;1.00;;;;;;6069970;23;20190;-86
2022/03/02 03:18:05;;;;;;;22.05;17.05;;;0.90;1.00;;;;;;6067377;23;20257;-88
2022/03/02 03:20:33;;;;;;;19.20;14.57;;;0.90;1.00;;;;;;6067769;23;20197;-86
2022/03/02 03:23:00;;;;;;;23.15;17.20;;;0.90;1.00;;;;;;6070536;23;20284;-88
2022/03/02 03:25:28;;;;;;;21.73;16.05;;;0.90;1.00;;;;;;6042854;23;20208;-88
2022/03/02 03:27:56;;;;;;;21.60;16.88;;;0.80;1.00;;;;;;6071069;23;20375;-85
2022/03/02 03:30:26;;;;;;;21.65;16.92;;;0.90;1.00;;;;;;6070007;23;20285;-84
2022/03/02 03:32:53;;;;;;;22.00;16.38;;;0.80;1.00;;;;;;6071797;23;20204;-85
2022/03/02 03:35:21;;;;;;;25.38;17.67;;;0.80;1.00;;;;;;6074364;23;20261;-83
2022/03/02 03:37:48;;;;;;;23.65;17.80;;;0.80;1.00;;;;;;6092927;23;20173;-88
2022/03/02 03:40:16;;;;;;;21.45;16.85;;;0.80;1.00;;;;;;6099423;23;20352;-87
2022/03/02 03:42:43;;;;;;;23.23;17.15;;;0.80;1.00;;;;;;6097859;23;20193;-88
2022/03/02 03:45:11;;;;;;;22.55;16.80;;;0.80;1.00;;;;;;6097035;23;20205;-86
2022/03/02 03:47:40;;;;;;;22.65;17.70;;;0.80;1.00;;;;;;6068498;23;20264;-85
2022/03/02 03:50:09;;;;;;;24.92;19.63;;;0.80;1.00;;;;;;6062057;23;20208;-86
2022/03/02 03:52:36;;;;;;;20.23;16.00;;;0.80;1.00;;;;;;6067524;23;20253;-85
2022/03/02 03:55:04;;;;;;;19.75;17.20;;;0.70;1.00;;;;;;6066819;23;20269;-85
2022/03/02 03:57:31;;;;;;;20.30;17.02;;;0.70;1.00;;;;;;6067691;23;20238;-87
2022/03/02 03:59:57;;;;;;;21.02;16.95;;;0.70;1.00;;;;;;6078092;23;20197;-86
2022/03/02 04:02:24;;;;;;;20.98;16.25;;;0.70;1.00;;;;;;6095426;23;20221;-88
2022/03/02 04:04:52;;;;;;;23.70;17.45;;;0.70;1.00;;;;;;6081500;23;21357;-85
2022/03/02 04:07:19;;;;;;;28.00;18.67;;;0.80;1.00;;;;;;6042629;23;20200;-85
2022/03/02 04:09:46;;;;;;;24.95;17.67;;;0.70;1.00;;;;;;6066123;23;20220;-86
2022/03/02 04:12:13;;;;;;;26.42;18.48;;;0.70;1.00;;;;;;6043969;23;20639;-84
2022/03/02 04:14:40;;;;;;;23.75;17.33;;;0.70;1.00;;;;;;6067375;23;20766;-87
2022/03/02 04:17:07;;;;;;;22.70;18.38;;;0.70;1.00;;;;;;6065065;23;20225;-87
2022/03/02 04:19:35;;;;;;;22.58;18.27;;;0.70;1.00;;;;;;6044686;23;20683;-86
2022/03/02 04:22:04;;;;;;;21.88;18.88;;;0.70;1.00;;;;;;6068433;23;20984;-82
2022/03/02 04:24:31;;;;;;;24.67;18.67;;;0.70;1.00;;;;;;6038956;23;20209;-83
2022/03/02 04:26:58;;;;;;;22.33;18.13;;;0.70;1.00;;;;;;6070128;23;20198;-82
2022/03/02 04:29:25;;;;;;;26.45;19.52;;;0.70;1.00;;;;;;6062137;23;20205;-82
2022/03/02 04:31:52;;;;;;;26.52;20.08;;;0.70;1.00;;;;;;6067536;23;20284;-82
2022/03/02 04:34:19;;;;;;;25.75;18.83;;;0.60;1.00;;;;;;6067221;23;20220;-82
2022/03/02 04:36:45;;;;;;;31.10;20.02;;;0.60;1.00;;;;;;6065260;23;20270;-82
2022/03/02 04:39:13;;;;;;;23.48;19.13;;;0.60;1.00;;;;;;6066957;23;20200;-83
2022/03/02 04:41:40;;;;;;;27.95;20.67;;;0.60;1.00;;;;;;6068959;23;20197;-82
2022/03/02 04:44:07;;;;;;;21.55;16.95;;;0.60;1.00;;;;;;6083115;23;20252;-81
2022/03/02 04:46:34;;;;;;;23.00;18.52;;;0.60;1.00;;;;;;6072968;23;20221;-83
2022/03/02 04:49:10;;;;;;;25.02;19.48;;;0.60;1.00;;;;;;6069630;23;20260;-83
2022/03/02 04:51:38;;;;;;;24.27;18.80;;;0.60;1.00;;;;;;6064395;23;20205;-82
2022/03/02 04:54:06;;;;;;;28.83;19.73;;;0.60;1.00;;;;;;6066332;23;20201;-82
2022/03/02 04:56:34;;;;;;;23.90;18.85;;;0.60;1.00;;;;;;6064113;23;20193;-83
2022/03/02 04:59:03;;;;;;;30.52;20.48;;;0.60;1.00;;;;;;6063723;23;21020;-82
2022/03/02 05:01:30;;;;;;;23.30;19.13;;;0.60;1.00;;;;;;6065313;23;21041;-84
2022/03/02 05:03:57;;;;;;;25.85;19.08;;;0.60;1.00;;;;;;6060844;23;21268;-84
2022/03/02 05:06:24;;;;;;;26.90;20.35;;;0.60;1.00;;;;;;6067935;23;20189;-82
2022/03/02 05:08:51;;;;;;;26.13;19.73;;;0.60;1.00;;;;;;6067207;23;20197;-83
2022/03/02 05:11:17;;;;;;;26.17;20.08;;;0.60;1.00;;;;;;6066872;23;20197;-82
2022/03/02 05:13:46;;;;;;;26.85;20.52;;;0.50;1.00;;;;;;6067969;23;20318;-81
2022/03/02 05:16:13;;;;;;;29.27;20.77;;;0.60;1.00;;;;;;6063177;23;20209;-81
2022/03/02 05:18:44;;;;;;;27.98;21.50;;;0.60;1.00;;;;;;6065916;23;20276;-82
2022/03/02 05:21:11;;;;;;;27.45;20.45;;;0.50;1.00;;;;;;6065972;23;20264;-80
2022/03/02 05:23:38;;;;;;;29.63;21.50;;;0.50;1.00;;;;;;6063194;23;20205;-82
2022/03/02 05:26:05;;;;;;;26.80;22.05;;;0.50;1.00;;;;;;6065498;23;20193;-83
2022/03/02 05:28:33;;;;;;;24.98;21.40;;;0.50;1.00;;;;;;6065999;23;20200;-84
2022/03/02 05:31:02;;;;;;;30.23;21.33;;;0.60;1.00;;;;;;6063141;23;20285;-83
2022/03/02 05:33:29;;;;;;;32.83;23.05;;;0.60;1.00;;;;;;6063764;23;20208;-85
2022/03/02 05:35:57;;;;;;;29.98;22.75;;;0.60;1.00;;;;;;6067063;23;20209;-85
2022/03/02 05:38:24;;;;;;;34.78;21.58;;;0.60;1.00;;;;;;6069796;23;20201;-84
2022/03/02 05:40:55;;;;;;;26.70;21.10;;;0.60;1.00;;;;;;6069542;23;20197;-87
2022/03/02 05:43:22;;;;;;;31.10;23.83;;;0.60;1.00;;;;;;6067883;23;20201;-87
2022/03/02 05:45:49;;;;;;;35.20;23.00;;;0.60;1.00;;;;;;6070953;23;20218;-87
2022/03/02 05:48:20;;;;;;;30.45;23.77;;;0.60;1.00;;;;;;6048648;23;20297;-87
2022/03/02 05:50:47;;;;;;;29.70;22.80;;;0.60;1.00;;;;;;6072982;23;20200;-86
2022/03/02 05:53:21;;;;;;;33.80;23.27;;;0.60;1.00;;;;;;6071871;23;20243;-89
2022/03/02 05:55:49;;;;;;;28.35;21.15;;;0.60;1.00;;;;;;6074835;23;20205;-85
2022/03/02 05:58:16;;;;;;;26.95;20.95;;;0.60;1.00;;;;;;6073907;23;20200;-85
2022/03/02 06:00:44;;;;;;;25.75;21.38;;;0.60;1.00;;;;;;6042774;23;20702;-87
2022/03/02 06:03:26;;;;;;;30.55;23.77;;;0.60;1.00;;;;;;6071382;23;20238;-87
2022/03/02 06:05:53;;;;;;;26.10;21.45;;;0.60;1.00;;;;;;6054419;23;20824;-87
2022/03/02 06:08:24;;;;;;;33.58;24.05;;;0.60;1.00;;;;;;6068490;23;20208;-87
2022/03/02 06:11:00;;;;;;;32.33;22.80;;;0.60;1.00;;;;;;6069622;23;20197;-87
2022/03/02 06:13:28;;;;;;;34.55;22.05;;;0.70;1.00;;;;;;6064924;23;20244;-88
2022/03/02 06:15:57;;;;;;;27.55;22.80;;;0.70;1.00;;;;;;6041202;23;20213;-87
2022/03/02 06:18:27;;;;;;;31.30;23.40;;;0.70;1.00;;;;;;6088835;23;20189;-88
2022/03/02 06:21:00;;;;;;;32.25;25.25;;;0.80;1.00;;;;;;6067888;23;20956;-87
2022/03/02 06:23:27;;;;;;;30.17;22.77;;;0.80;1.00;;;;;;6044519;23;20201;-84
2022/03/02 06:26:01;;;;;;;33.53;22.38;;;0.90;1.00;;;;;;6072055;23;21232;-86
2022/03/02 06:28:28;;;;;;;35.25;23.40;;;0.90;1.00;;;;;;6084128;23;20191;-82
2022/03/02 06:30:55;;;;;;;31.90;22.30;;;1.00;1.00;;;;;;6078254;23;20205;-82
2022/03/02 06:33:22;;;;;;;40.70;28.05;;;1.00;1.00;;;;;;6074675;23;20181;-81
2022/03/02 06:35:50;;;;;;;37.45;25.52;;;1.00;1.00;;;;;;6082888;23;20224;-83
2022/03/02 06:38:18;;;;;;;31.13;23.55;;;1.00;1.00;;;;;;6064056;23;20184;-82
2022/03/02 06:41:00;;;;;;;31.17;24.05;;;1.10;1.00;;;;;;6095949;23;20351;-80
2022/03/02 06:43:33;;;;;;;35.85;23.80;;;1.10;1.00;;;;;;6094995;23;20282;-82
2022/03/02 06:46:05;;;;;;;43.60;32.05;;;1.20;1.00;;;;;;6060777;23;20202;-83
2022/03/02 06:48:36;;;;;;;34.45;23.45;;;1.30;1.00;;;;;;6081415;23;20193;-85
2022/03/02 06:51:07;;;;;;;31.92;24.77;;;1.40;1.00;;;;;;6070955;23;20264;-87
2022/03/02 06:53:37;;;;;;;33.15;25.25;;;1.40;1.00;;;;;;6049820;23;20256;-87
2022/03/02 06:56:07;;;;;;;27.02;22.42;;;1.40;1.00;;;;;;6064212;23;20291;-80
2022/03/02 06:58:43;;;;;;;35.83;25.65;;;1.40;1.00;;;;;;6071173;23;20224;-89
2022/03/02 07:01:14;;;;;;;35.13;23.52;;;1.40;1.00;;;;;;6076530;23;20193;-89
2022/03/02 07:03:47;;;;;;;35.03;26.80;;;1.50;1.00;;;;;;6081178;23;20181;-89
2022/03/02 07:06:17;;;;;;;31.95;23.60;;;1.50;1.00;;;;;;6078737;23;20188;-87
2022/03/02 07:11:28;;;;;;;29.38;24.77;;;1.60;1.00;;;;;;6077546;23;20219;-84
2022/03/02 07:13:55;;;;;;;33.60;25.15;;;1.60;1.00;;;;;;6052528;23;20212;-88
2022/03/02 07:16:22;;;;;;;39.90;28.92;;;1.60;1.00;;;;;;6083221;23;20205;-79
2022/03/02 07:18:50;;;;;;;37.30;27.08;;;1.60;1.00;;;;;;6085277;23;20253;-83
2022/03/02 07:21:36;;;;;;;31.45;24.42;;;1.60;1.00;;;;;;6074574;23;20291;-82
2022/03/02 07:24:08;;;;;;;36.58;25.17;;;1.60;1.00;;;;;;6083849;23;20177;-85
2022/03/02 07:26:35;;;;;;;31.75;25.58;;;1.70;1.00;;;;;;6096548;23;20185;-81
2022/03/02 07:29:05;;;;;;;38.10;24.55;;;1.80;1.00;;;;;;6094120;23;20213;-81
2022/03/02 07:31:34;;;;;;;34.13;25.60;;;1.90;1.00;;;;;;6079082;23;20201;-81
2022/03/02 07:34:03;;;;;;;35.20;26.17;;;2.00;1.00;;;;;;6067794;23;20212;-82
2022/03/02 07:36:31;;;;;;;31.70;24.20;;;2.00;1.00;;;;;;6067040;23;20204;-82
2022/03/02 07:39:00;;;;;;;32.08;25.40;;;2.10;1.00;;;;;;6067420;23;20265;-82
2022/03/02 07:41:27;;;;;;;26.70;23.83;;;2.00;1.00;;;;;;6065593;23;20201;-84
2022/03/02 07:43:54;;;;;;;36.80;25.17;;;2.10;1.00;;;;;;6067792;23;20632;-82
2022/03/02 07:46:20;;;;;;;33.63;25.35;;;2.20;1.00;;;;;;6065304;23;20193;-81
2022/03/02 07:48:47;;;;;;;33.47;25.52;;;2.30;1.00;;;;;;6066323;23;20194;-82
2022/03/02 07:51:16;;;;;;;33.58;25.40;;;2.30;1.00;;;;;;6073027;23;20286;-82
2022/03/02 07:53:45;;;;;;;35.70;25.38;;;2.40;1.00;;;;;;6051435;23;20201;-82
2022/03/02 07:56:16;;;;;;;35.80;27.15;;;2.50;1.00;;;;;;6063864;23;20405;-81
2022/03/02 07:58:43;;;;;;;34.42;26.75;;;2.60;1.00;;;;;;6064395;23;20663;-80
2022/03/02 08:01:14;;;;;;;37.65;27.02;;;2.60;1.00;;;;;;6043438;23;20383;-80
2022/03/02 08:03:45;;;;;;;35.05;26.75;;;2.70;1.00;;;;;;6065855;23;20221;-79
2022/03/02 08:06:13;;;;;;;38.20;27.77;;;2.90;1.00;;;;;;6036693;23;20201;-80
2022/03/02 08:08:41;;;;;;;33.03;25.38;;;2.90;1.00;;;;;;6062388;23;20292;-81
2022/03/02 08:11:08;;;;;;;38.05;27.90;;;3.00;1.00;;;;;;6062624;23;20201;-81
2022/03/02 08:13:37;;;;;;;36.00;26.50;;;3.10;1.00;;;;;;6062318;23;20280;-80
2022/03/02 08:16:04;;;;;;;32.78;28.05;;;3.20;1.00;;;;;;6062167;23;20213;-80
2022/03/02 08:18:31;;;;;;;33.33;25.95;;;3.40;1.00;;;;;;6061944;23;20303;-79
2022/03/02 08:20:58;;;;;;;37.08;27.08;;;3.50;1.00;;;;;;6060008;23;20197;-81
2022/03/02 08:23:29;;;;;;;36.72;28.88;;;3.60;1.00;;;;;;6064425;23;20196;-78
2022/03/02 08:25:56;;;;;;;36.65;26.52;;;3.80;1.00;;;;;;6033633;23;20189;-79
2022/03/02 08:28:25;;;;;;;35.15;28.23;;;3.80;1.00;;;;;;6061962;23;20197;-80
2022/03/02 08:30:54;;;;;;;36.67;29.00;;;3.90;1.00;;;;;;6067133;23;20173;-82
2022/03/02 08:33:27;;;;;;;34.22;25.67;;;4.00;1.00;;;;;;6068566;23;20687;-82
2022/03/02 08:35:55;;;;;;;36.45;29.00;;;4.10;1.00;;;;;;6066328;23;20761;-80
2022/03/02 08:38:22;;;;;;;32.67;24.55;;;4.20;1.00;;;;;;6064192;23;20193;-85
2022/03/02 08:40:49;;;;;;;31.27;24.90;;;4.30;1.00;;;;;;6090303;23;20191;-88
2022/03/02 08:44:12;;;;;;;38.15;28.20;;;4.40;1.00;;;;;;6094469;23;20237;-89
2022/03/02 08:47:25;;;;;;;32.30;26.40;;;4.40;1.00;;;;;;6088239;23;20687;-91
2022/03/02 08:49:55;;;;;;;32.45;27.50;;;4.30;1.00;;;;;;6072220;23;20672;-84
2022/03/02 08:52:26;;;;;;;32.13;26.85;;;4.40;1.00;;;;;;6086405;23;20189;-82
2022/03/02 08:54:55;;;;;;;33.80;27.90;;;4.70;1.00;;;;;;6097203;23;20169;-84
2022/03/02 08:57:23;;;;;;;35.05;25.95;;;5.30;1.00;;;;;;6094939;23;20225;-83
2022/03/02 08:59:52;;;;;;;31.25;24.60;;;5.60;1.00;;;;;;6091527;23;20181;-84
2022/03/02 09:02:29;;;;;;;35.63;26.10;;;6.00;1.00;;;;;;6084993;23;20831;-83
2022/03/02 09:05:01;;;;;;;34.22;26.65;;;6.30;1.00;;;;;;6041720;23;20192;-83
2022/03/02 09:07:28;;;;;;;34.05;26.27;;;6.70;1.00;;;;;;6065151;23;20181;-83
2022/03/02 09:09:55;;;;;;;33.40;25.52;;;6.80;1.00;;;;;;6065950;23;20193;-83
2022/03/02 09:12:22;;;;;;;32.20;24.60;;;6.80;1.00;;;;;;6070416;23;20270;-86
2022/03/02 09:14:50;;;;;;;33.45;25.50;;;6.90;1.00;;;;;;6068682;23;20208;-85
2022/03/02 09:17:18;;;;;;;31.45;25.98;;;6.90;1.00;;;;;;6074891;23;20213;-86
2022/03/02 09:19:45;;;;;;;35.17;26.23;;;7.00;1.00;;;;;;6048903;23;20193;-87
2022/03/02 09:22:31;;;;;;;36.50;25.52;;;7.10;1.00;;;;;;6060948;23;20577;-89
2022/03/02 09:24:59;;;;;;;37.72;28.40;;;7.30;1.00;;;;;;6075186;23;20329;-89
2022/03/02 09:27:31;;;;;;;35.47;26.63;;;7.40;1.00;;;;;;6070063;23;20252;-86
2022/03/02 09:30:01;;;;;;;36.20;27.40;;;7.50;1.00;;;;;;6075879;23;20257;-90
2022/03/02 09:32:32;;;;;;;34.08;26.52;;;7.70;1.00;;;;;;6071742;23;20235;-91
2022/03/02 09:35:00;;;;;;;31.27;24.33;;;7.90;1.00;;;;;;6075250;23;20789;-86
2022/03/02 09:37:34;;;;;;;37.30;31.85;;;8.10;1.00;;;;;;6075154;23;21058;-87
2022/03/02 09:40:04;;;;;;;31.63;26.20;;;8.50;1.00;;;;;;6077253;23;20245;-89
2022/03/02 09:42:42;;;;;;;31.83;25.98;;;8.60;1.00;;;;;;6076764;23;20292;-85
2022/03/02 09:45:11;;;;;;;35.93;27.83;;;8.80;1.00;;;;;;6061873;23;20197;-82
2022/03/02 09:47:44;;;;;;;31.80;26.70;;;8.90;1.00;;;;;;6065408;23;20789;-80
2022/03/02 09:50:13;;;;;;;32.63;24.52;;;9.10;1.00;;;;;;6070622;23;20194;-83
2022/03/02 09:52:45;;;;;;;31.07;25.53;;;9.20;1.00;;;;;;6064510;23;20201;-83
2022/03/02 09:55:14;;;;;;;36.77;26.63;;;9.40;1.00;;;;;;6065748;23;20410;-83
2022/03/02 09:57:43;;;;;;;28.90;23.00;;;9.60;1.00;;;;;;6064596;23;20500;-81
2022/03/02 10:00:11;;;;;;;29.13;22.40;;;9.70;1.00;;;;;;6062413;23;20903;-83
2022/03/02 10:02:41;;;;;;;29.20;24.20;;;10.00;1.00;;;;;;6064263;23;20193;-83
2022/03/02 10:05:11;;;;;;;33.90;23.63;;;10.20;1.00;;;;;;6066899;23;20549;-84
2022/03/02 10:07:40;;;;;;;27.33;24.43;;;10.90;1.00;;;;;;6065833;23;20405;-83
2022/03/02 10:10:10;;;;;;;30.83;23.70;;;11.50;1.00;;;;;;6063796;23;20417;-84
2022/03/02 10:12:38;;;;;;;26.63;23.73;;;11.60;1.00;;;;;;6066686;23;21604;-82
2022/03/02 10:15:08;;;;;;;26.67;23.00;;;11.90;1.00;;;;;;6065880;23;20412;-81
2022/03/02 10:17:36;;;;;;;28.93;25.00;;;11.80;1.00;;;;;;6068671;23;20920;-83
2022/03/02 10:20:07;;;;;;;28.80;25.60;;;11.60;1.00;;;;;;6064753;23;20529;-83
2022/03/02 10:22:57;;;;;;;32.53;27.00;;;11.20;1.00;;;;;;6064609;23;20481;-82
2022/03/02 10:25:43;;;;;;;33.43;24.77;;;11.40;1.00;;;;;;6062815;23;20474;-83
2022/03/02 10:28:14;;;;;;;27.30;24.40;;;12.30;1.00;;;;;;6064259;23;20504;-81
2022/03/02 10:30:43;;;;;;;27.40;23.83;;;13.30;1.00;;;;;;6062358;23;20397;-81
2022/03/02 10:33:18;;;;;;;26.50;22.73;;;15.00;1.00;;;;;;6063686;23;20402;-81
2022/03/02 10:35:51;;;;;;;26.27;23.57;;;16.60;1.00;;;;;;6062957;23;20402;-83
2022/03/02 10:38:27;;;;;;;25.43;22.63;;;17.60;1.00;;;;;;6067559;23;20371;-81
2022/03/02 10:41:00;;;;;;;24.33;21.83;;;17.60;1.00;;;;;;6066234;23;20378;-82
2022/03/02 10:43:41;;;;;;;26.13;23.40;;;16.90;1.00;;;;;;6064985;23;20410;-81
2022/03/02 10:46:10;;;;;;;25.80;21.70;;;16.60;1.00;;;;;;6064540;23;20449;-80
2022/03/02 10:48:42;;;;;;;26.57;23.70;;;17.20;1.00;;;;;;6065238;23;20441;-81
2022/03/02 10:51:10;;;;;;;25.27;21.97;;;17.90;1.00;;;;;;6066502;23;20378;-82
2022/03/02 10:53:40;;;;;;;25.30;22.83;;;18.60;1.00;;;;;;6064610;23;20401;-80
2022/03/02 10:56:09;;;;;;;24.10;21.60;;;18.70;1.00;;;;;;6066393;23;20431;-82
2022/03/02 10:58:38;;;;;;;24.00;21.57;;;18.50;1.00;;;;;;6065706;23;20508;-81
2022/03/02 11:01:05;;;;;;;25.17;22.47;;;18.30;1.00;;;;;;6083595;23;20410;-86
2022/03/02 11:03:36;;;;;;;27.93;21.80;;;17.80;1.00;;;;;;6094250;23;20385;-81
2022/03/02 11:06:06;;;;;;;23.60;20.93;;;18.50;1.00;;;;;;6091296;23;20433;-80
2022/03/02 11:08:34;;;;;;;24.60;22.10;;;19.00;1.00;;;;;;6077654;23;20424;-82
2022/03/02 11:11:01;;;;;;;23.53;20.67;;;19.60;1.00;;;;;;6073819;23;20370;-82
2022/03/02 11:13:29;;;;;;;21.37;19.13;;;20.40;1.00;;;;;;6081298;23;20432;-82
2022/03/02 11:15:58;;;;;;;21.70;19.50;;;20.90;1.00;;;;;;6082589;23;20421;-82
2022/03/02 11:18:33;;;;;;;24.53;22.13;;;21.20;1.00;;;;;;6081944;23;21622;-82
2022/03/02 11:21:02;;;;;;;23.70;20.90;;;21.60;1.00;;;;;;6077039;23;20429;-82
2022/03/02 11:23:33;;;;;;;25.03;22.20;;;21.50;1.00;;;;;;6063880;23;20429;-83
2022/03/02 11:26:06;;;;;;;22.30;19.97;;;20.60;1.00;;;;;;6058220;23;20398;-84
2022/03/02 11:28:35;;;;;;;21.40;19.17;;;20.00;1.00;;;;;;6054262;23;20410;-82
2022/03/02 11:31:05;;;;;;;20.57;18.40;;;20.10;1.00;;;;;;6051942;23;20484;-84
2022/03/02 11:33:32;;;;;;;21.90;19.50;;;20.90;1.00;;;;;;6062805;23;20382;-83
2022/03/02 11:36:08;;;;;;;18.17;16.37;;;21.90;1.00;;;;;;6062917;23;20521;-84
2022/03/02 11:38:35;;;;;;;17.67;15.87;;;22.90;1.00;;;;;;6064886;23;20894;-82
2022/03/02 11:41:02;;;;;;;18.63;16.73;;;23.30;1.00;;;;;;6065181;23;20378;-83
2022/03/02 11:43:32;;;;;;;19.43;16.17;;;23.10;1.00;;;;;;6062721;23;20509;-83
2022/03/02 11:46:02;;;;;;;18.40;16.40;;;23.10;1.00;;;;;;6063729;23;20402;-82
2022/03/02 11:48:30;;;;;;;17.70;16.10;;;22.90;1.00;;;;;;6067132;23;20453;-83
2022/03/02 11:51:07;;;;;;;19.67;16.80;;;22.50;1.00;;;;;;6063077;23;20409;-82
2022/03/02 11:53:37;;;;;;;18.67;16.73;;;22.30;1.00;;;;;;6068482;23;20409;-82
2022/03/02 11:56:05;;;;;;;18.50;14.93;;;22.60;1.00;;;;;;6079950;23;21026;-83
2022/03/02 12:02:04;;;;;;;18.00;15.47;;;22.20;1.00;;;;;;6056769;23;20697;-86
2022/03/02 12:05:03;;;;;;;17.83;15.50;;;22.10;1.00;;;;;;6063536;23;20473;-85
2022/03/02 12:10:36;;;;;;;16.60;14.07;;;22.60;1.00;;;;;;6035810;23;20446;-83
2022/03/02 12:13:05;;;;;;;14.40;12.90;;;23.10;1.00;;;;;;6067033;23;20430;-83
2022/03/02 12:15:43;;;;;;;13.57;12.13;;;24.30;1.00;;;;;;6070801;23;20433;-84
2022/03/02 12:18:13;;;;;;;13.27;11.30;;;24.70;1.00;;;;;;6073693;23;20417;-83
2022/03/02 12:20:46;;;;;;;13.60;12.20;;;24.90;1.00;;;;;;6070502;23;20405;-83
2022/03/02 12:23:13;;;;;;;14.17;12.70;;;24.70;1.00;;;;;;6069283;23;20441;-83
2022/03/02 12:25:50;;;;;;;14.07;12.77;;;24.70;1.00;;;;;;6068244;23;20418;-84
2022/03/02 12:28:18;;;;;;;13.70;11.93;;;24.60;1.00;;;;;;6068637;23;20397;-81
2022/03/02 12:30:45;;;;;;;12.50;10.67;;;25.00;1.00;;;;;;6045124;23;20478;-81
2022/03/02 12:33:13;;;;;;;12.20;10.87;;;25.10;1.00;;;;;;6071707;23;20553;-84
2022/03/02 12:35:40;;;;;;;12.27;10.93;;;25.20;1.00;;;;;;6065330;23;20400;-82
2022/03/02 12:38:11;;;;;;;13.50;11.87;;;25.60;1.00;;;;;;6083846;23;20425;-85
2022/03/02 12:40:41;;;;;;;15.80;14.10;;;25.30;1.00;;;;;;6074370;23;20381;-83
2022/03/02 12:43:09;;;;;;;15.00;13.40;;;25.50;1.00;;;;;;6071675;23;20848;-81
2022/03/02 12:45:42;;;;;;;16.23;13.17;;;25.20;1.00;;;;;;6070026;23;20430;-83
2022/03/02 12:48:09;;;;;;;14.60;12.17;;;24.90;1.00;;;;;;6069143;23;20523;-82
2022/03/02 12:50:38;;;;;;;14.80;13.13;;;24.70;1.00;;;;;;6063894;23;20442;-82
2022/03/02 12:53:06;;;;;;;12.90;11.70;;;25.00;1.00;;;;;;6067127;23;20417;-82
2022/03/02 12:55:32;;;;;;;16.87;15.07;;;25.10;1.00;;;;;;6068935;23;20477;-84
2022/03/02 12:57:59;;;;;;;14.47;13.00;;;24.10;1.00;;;;;;6080736;23;20518;-84
2022/03/02 13:00:26;;;;;;;16.30;13.87;;;23.80;1.00;;;;;;6064804;23;20784;-83
2022/03/02 13:02:55;;;;;;;16.67;14.97;;;23.40;1.00;;;;;;6066722;23;20370;-81
2022/03/02 13:05:31;;;;;;;14.60;13.00;;;22.50;1.00;;;;;;6062305;23;20438;-82